sensor_id;sensor_type;location;lat;lon;timestamp;P1;durP1;ratioP1;P2;durP2;ratioP2
69081;SDS011;56184;51.986;5.760;2022-09-09T00:09:47;3.90;;;3.00;;
69081;SDS011;56184;51.986;5.760;2022-09-09T00:12:25;5.28;;;3.20;;
69081;SDS011;56184;51.986;5.760;2022-09-09T00:15:11;5.55;;;3.28;;
69081;SDS011;56184;51.986;5.760;2022-09-09T00:17:39;5.10;;;3.30;;
69081;SDS011;56184;51.986;5.760;2022-09-09T00:23:25;8.00;;;3.70;;
69081;SDS011;56184;51.986;5.760;2022-09-09T00:26:04;5.78;;;3.38;;
69081;SDS011;56184;51.986;5.760;2022-09-09T00:28:55;7.53;;;4.00;;
69081;SDS011;56184;51.986;5.760;2022-09-09T00:31:24;4.07;;;3.20;;
69081;SDS011;56184;51.986;5.760;2022-09-09T00:36:48;8.15;;;3.47;;
69081;SDS011;56184;51.986;5.760;2022-09-09T00:39:27;4.30;;;3.03;;
69081;SDS011;56184;51.986;5.760;2022-09-09T00:42:18;6.78;;;3.20;;
69081;SDS011;56184;51.986;5.760;2022-09-09T00:45:15;6.10;;;3.40;;
69081;SDS011;56184;51.986;5.760;2022-09-09T00:47:56;6.05;;;3.20;;
69081;SDS011;56184;51.986;5.760;2022-09-09T00:58:36;3.95;;;3.00;;
69081;SDS011;56184;51.986;5.760;2022-09-09T01:01:11;5.63;;;2.60;;
69081;SDS011;56184;51.986;5.760;2022-09-09T01:08:51;4.32;;;2.80;;
69081;SDS011;56184;51.986;5.760;2022-09-09T01:17:00;5.13;;;2.88;;
69081;SDS011;56184;51.986;5.760;2022-09-09T01:27:46;9.63;;;3.08;;
69081;SDS011;56184;51.986;5.760;2022-09-09T01:30:15;8.00;;;3.00;;
69081;SDS011;56184;51.986;5.760;2022-09-09T01:32:57;6.95;;;3.10;;
69081;SDS011;56184;51.986;5.760;2022-09-09T01:38:09;5.53;;;2.90;;
69081;SDS011;56184;51.986;5.760;2022-09-09T01:40:35;5.00;;;2.50;;
69081;SDS011;56184;51.986;5.760;2022-09-09T01:43:01;7.15;;;2.70;;
69081;SDS011;56184;51.986;5.760;2022-09-09T01:45:28;5.50;;;2.80;;
69081;SDS011;56184;51.986;5.760;2022-09-09T01:47:58;5.30;;;2.70;;
69081;SDS011;56184;51.986;5.760;2022-09-09T01:50:25;4.50;;;2.30;;
69081;SDS011;56184;51.986;5.760;2022-09-09T01:52:53;3.53;;;2.60;;
69081;SDS011;56184;51.986;5.760;2022-09-09T01:55:28;8.75;;;2.40;;
69081;SDS011;56184;51.986;5.760;2022-09-09T02:00:43;4.82;;;2.30;;
69081;SDS011;56184;51.986;5.760;2022-09-09T02:03:21;3.22;;;2.30;;
69081;SDS011;56184;51.986;5.760;2022-09-09T02:08:33;3.15;;;2.20;;
69081;SDS011;56184;51.986;5.760;2022-09-09T02:11:13;7.50;;;2.10;;
69081;SDS011;56184;51.986;5.760;2022-09-09T02:13:45;7.13;;;1.98;;
69081;SDS011;56184;51.986;5.760;2022-09-09T02:16:22;2.65;;;2.00;;
69081;SDS011;56184;51.986;5.760;2022-09-09T02:19:11;5.53;;;2.50;;
69081;SDS011;56184;51.986;5.760;2022-09-09T02:21:41;2.45;;;1.83;;
69081;SDS011;56184;51.986;5.760;2022-09-09T02:24:09;5.38;;;2.13;;
69081;SDS011;56184;51.986;5.760;2022-09-09T02:26:39;11.20;;;2.42;;
69081;SDS011;56184;51.986;5.760;2022-09-09T02:29:11;4.68;;;2.10;;
69081;SDS011;56184;51.986;5.760;2022-09-09T02:31:41;8.00;;;2.55;;
69081;SDS011;56184;51.986;5.760;2022-09-09T02:34:09;5.72;;;2.42;;
69081;SDS011;56184;51.986;5.760;2022-09-09T02:36:37;3.85;;;2.42;;
69081;SDS011;56184;51.986;5.760;2022-09-09T02:39:07;5.00;;;2.08;;
69081;SDS011;56184;51.986;5.760;2022-09-09T02:41:35;2.80;;;2.08;;
69081;SDS011;56184;51.986;5.760;2022-09-09T02:47:03;6.60;;;2.33;;
69081;SDS011;56184;51.986;5.760;2022-09-09T02:55:39;5.47;;;2.50;;
69081;SDS011;56184;51.986;5.760;2022-09-09T02:58:22;5.65;;;2.47;;
69081;SDS011;56184;51.986;5.760;2022-09-09T03:00:49;6.95;;;2.80;;
69081;SDS011;56184;51.986;5.760;2022-09-09T03:03:17;2.80;;;2.60;;
69081;SDS011;56184;51.986;5.760;2022-09-09T03:05:45;5.45;;;2.97;;
69081;SDS011;56184;51.986;5.760;2022-09-09T03:08:11;4.65;;;2.40;;
69081;SDS011;56184;51.986;5.760;2022-09-09T03:10:38;6.75;;;2.75;;
69081;SDS011;56184;51.986;5.760;2022-09-09T03:13:04;5.70;;;2.85;;
69081;SDS011;56184;51.986;5.760;2022-09-09T03:15:30;5.90;;;2.92;;
69081;SDS011;56184;51.986;5.760;2022-09-09T03:17:58;4.82;;;2.75;;
69081;SDS011;56184;51.986;5.760;2022-09-09T03:20:27;11.65;;;3.00;;
69081;SDS011;56184;51.986;5.760;2022-09-09T03:22:54;7.03;;;2.95;;
69081;SDS011;56184;51.986;5.760;2022-09-09T03:25:21;5.80;;;2.95;;
69081;SDS011;56184;51.986;5.760;2022-09-09T03:27:51;5.50;;;2.88;;
69081;SDS011;56184;51.986;5.760;2022-09-09T03:30:20;6.38;;;2.67;;
69081;SDS011;56184;51.986;5.760;2022-09-09T03:32:47;6.47;;;2.75;;
69081;SDS011;56184;51.986;5.760;2022-09-09T03:35:15;6.07;;;2.58;;
69081;SDS011;56184;51.986;5.760;2022-09-09T03:37:41;5.30;;;3.00;;
69081;SDS011;56184;51.986;5.760;2022-09-09T03:40:07;8.68;;;2.92;;
69081;SDS011;56184;51.986;5.760;2022-09-09T03:42:35;6.75;;;3.00;;
69081;SDS011;56184;51.986;5.760;2022-09-09T03:45:02;13.05;;;2.90;;
69081;SDS011;56184;51.986;5.760;2022-09-09T03:47:32;6.60;;;2.65;;
69081;SDS011;56184;51.986;5.760;2022-09-09T03:49:58;8.88;;;2.78;;
69081;SDS011;56184;51.986;5.760;2022-09-09T03:52:24;6.00;;;2.47;;
69081;SDS011;56184;51.986;5.760;2022-09-09T03:54:58;3.22;;;2.40;;
69081;SDS011;56184;51.986;5.760;2022-09-09T03:57:26;10.05;;;2.60;;
69081;SDS011;56184;51.986;5.760;2022-09-09T03:59:52;6.65;;;2.88;;
69081;SDS011;56184;51.986;5.760;2022-09-09T04:02:17;5.60;;;3.08;;
69081;SDS011;56184;51.986;5.760;2022-09-09T04:04:43;6.72;;;2.70;;
69081;SDS011;56184;51.986;5.760;2022-09-09T04:07:12;12.23;;;2.85;;
69081;SDS011;56184;51.986;5.760;2022-09-09T04:09:38;6.72;;;2.88;;
69081;SDS011;56184;51.986;5.760;2022-09-09T04:12:03;10.70;;;2.63;;
69081;SDS011;56184;51.986;5.760;2022-09-09T04:14:29;6.35;;;2.63;;
69081;SDS011;56184;51.986;5.760;2022-09-09T04:16:55;8.88;;;2.47;;
69081;SDS011;56184;51.986;5.760;2022-09-09T04:19:22;5.00;;;2.72;;
69081;SDS011;56184;51.986;5.760;2022-09-09T04:21:50;6.07;;;2.40;;
69081;SDS011;56184;51.986;5.760;2022-09-09T04:24:19;11.38;;;3.20;;
69081;SDS011;56184;51.986;5.760;2022-09-09T04:26:49;7.50;;;2.60;;
69081;SDS011;56184;51.986;5.760;2022-09-09T04:29:15;9.80;;;2.75;;
69081;SDS011;56184;51.986;5.760;2022-09-09T04:31:41;13.05;;;2.90;;
69081;SDS011;56184;51.986;5.760;2022-09-09T04:34:07;9.52;;;3.28;;
69081;SDS011;56184;51.986;5.760;2022-09-09T04:36:33;4.35;;;2.58;;
69081;SDS011;56184;51.986;5.760;2022-09-09T04:38:59;6.72;;;2.97;;
69081;SDS011;56184;51.986;5.760;2022-09-09T04:41:26;5.03;;;2.58;;
69081;SDS011;56184;51.986;5.760;2022-09-09T04:43:52;7.60;;;2.70;;
69081;SDS011;56184;51.986;5.760;2022-09-09T04:46:18;7.28;;;2.90;;
69081;SDS011;56184;51.986;5.760;2022-09-09T04:48:45;10.55;;;2.83;;
69081;SDS011;56184;51.986;5.760;2022-09-09T04:51:11;6.50;;;2.42;;
69081;SDS011;56184;51.986;5.760;2022-09-09T04:53:38;8.80;;;2.90;;
69081;SDS011;56184;51.986;5.760;2022-09-09T04:56:06;7.18;;;2.35;;
69081;SDS011;56184;51.986;5.760;2022-09-09T04:58:36;10.25;;;2.40;;
69081;SDS011;56184;51.986;5.760;2022-09-09T05:01:06;12.10;;;2.50;;
69081;SDS011;56184;51.986;5.760;2022-09-09T05:03:33;8.93;;;2.53;;
69081;SDS011;56184;51.986;5.760;2022-09-09T05:06:09;5.95;;;2.60;;
69081;SDS011;56184;51.986;5.760;2022-09-09T05:08:36;7.78;;;2.72;;
69081;SDS011;56184;51.986;5.760;2022-09-09T05:11:04;7.65;;;2.40;;
69081;SDS011;56184;51.986;5.760;2022-09-09T05:13:38;4.78;;;2.00;;
69081;SDS011;56184;51.986;5.760;2022-09-09T05:16:03;4.72;;;2.35;;
69081;SDS011;56184;51.986;5.760;2022-09-09T05:18:29;11.15;;;2.10;;
69081;SDS011;56184;51.986;5.760;2022-09-09T05:20:58;7.05;;;2.28;;
69081;SDS011;56184;51.986;5.760;2022-09-09T05:23:24;10.65;;;2.40;;
69081;SDS011;56184;51.986;5.760;2022-09-09T05:25:54;8.25;;;2.60;;
69081;SDS011;56184;51.986;5.760;2022-09-09T05:28:21;9.27;;;2.50;;
69081;SDS011;56184;51.986;5.760;2022-09-09T05:30:55;4.32;;;2.17;;
69081;SDS011;56184;51.986;5.760;2022-09-09T05:33:25;8.73;;;2.40;;
69081;SDS011;56184;51.986;5.760;2022-09-09T05:36:02;5.03;;;2.15;;
69081;SDS011;56184;51.986;5.760;2022-09-09T05:38:32;7.93;;;2.55;;
69081;SDS011;56184;51.986;5.760;2022-09-09T05:40:59;6.78;;;2.15;;
69081;SDS011;56184;51.986;5.760;2022-09-09T05:43:27;5.50;;;2.30;;
69081;SDS011;56184;51.986;5.760;2022-09-09T05:46:00;10.50;;;2.30;;
69081;SDS011;56184;51.986;5.760;2022-09-09T05:48:29;13.23;;;2.42;;
69081;SDS011;56184;51.986;5.760;2022-09-09T05:50:56;9.90;;;2.50;;
69081;SDS011;56184;51.986;5.760;2022-09-09T05:53:24;8.65;;;2.47;;
69081;SDS011;56184;51.986;5.760;2022-09-09T05:55:50;10.95;;;2.53;;
69081;SDS011;56184;51.986;5.760;2022-09-09T05:58:22;4.83;;;2.17;;
69081;SDS011;56184;51.986;5.760;2022-09-09T06:00:49;11.00;;;2.47;;
69081;SDS011;56184;51.986;5.760;2022-09-09T06:03:15;9.15;;;2.42;;
69081;SDS011;56184;51.986;5.760;2022-09-09T06:05:41;6.60;;;2.28;;
69081;SDS011;56184;51.986;5.760;2022-09-09T06:08:07;14.73;;;2.15;;
69081;SDS011;56184;51.986;5.760;2022-09-09T06:10:33;7.25;;;2.38;;
69081;SDS011;56184;51.986;5.760;2022-09-09T06:12:59;5.97;;;2.08;;
69081;SDS011;56184;51.986;5.760;2022-09-09T06:15:24;10.88;;;2.72;;
69081;SDS011;56184;51.986;5.760;2022-09-09T06:17:54;7.90;;;2.58;;
69081;SDS011;56184;51.986;5.760;2022-09-09T06:20:20;9.90;;;2.53;;
69081;SDS011;56184;51.986;5.760;2022-09-09T06:22:47;7.75;;;2.60;;
69081;SDS011;56184;51.986;5.760;2022-09-09T06:25:13;11.48;;;2.58;;
69081;SDS011;56184;51.986;5.760;2022-09-09T06:27:39;8.50;;;2.25;;
69081;SDS011;56184;51.986;5.760;2022-09-09T06:30:05;15.90;;;3.00;;
69081;SDS011;56184;51.986;5.760;2022-09-09T06:32:32;7.72;;;2.50;;
69081;SDS011;56184;51.986;5.760;2022-09-09T06:34:59;7.57;;;2.30;;
69081;SDS011;56184;51.986;5.760;2022-09-09T06:37:26;12.05;;;2.35;;
69081;SDS011;56184;51.986;5.760;2022-09-09T06:39:52;12.05;;;2.40;;
69081;SDS011;56184;51.986;5.760;2022-09-09T06:42:19;7.22;;;2.20;;
69081;SDS011;56184;51.986;5.760;2022-09-09T06:44:45;20.27;;;2.28;;
69081;SDS011;56184;51.986;5.760;2022-09-09T06:47:10;14.18;;;2.55;;
69081;SDS011;56184;51.986;5.760;2022-09-09T06:49:36;9.70;;;2.13;;
69081;SDS011;56184;51.986;5.760;2022-09-09T06:52:02;7.10;;;2.30;;
69081;SDS011;56184;51.986;5.760;2022-09-09T06:54:27;9.50;;;2.20;;
69081;SDS011;56184;51.986;5.760;2022-09-09T06:56:53;7.40;;;2.20;;
69081;SDS011;56184;51.986;5.760;2022-09-09T06:59:19;11.63;;;2.13;;
69081;SDS011;56184;51.986;5.760;2022-09-09T07:01:46;8.27;;;2.25;;
69081;SDS011;56184;51.986;5.760;2022-09-09T07:04:11;15.27;;;2.60;;
69081;SDS011;56184;51.986;5.760;2022-09-09T07:06:40;9.60;;;1.80;;
69081;SDS011;56184;51.986;5.760;2022-09-09T07:09:12;9.13;;;2.40;;
69081;SDS011;56184;51.986;5.760;2022-09-09T07:14:08;11.90;;;2.70;;
69081;SDS011;56184;51.986;5.760;2022-09-09T07:16:34;13.95;;;2.20;;
69081;SDS011;56184;51.986;5.760;2022-09-09T07:19:02;7.18;;;2.00;;
69081;SDS011;56184;51.986;5.760;2022-09-09T07:21:29;11.45;;;2.15;;
69081;SDS011;56184;51.986;5.760;2022-09-09T07:23:56;15.25;;;2.38;;
69081;SDS011;56184;51.986;5.760;2022-09-09T07:26:23;13.52;;;2.25;;
69081;SDS011;56184;51.986;5.760;2022-09-09T07:28:50;10.98;;;2.03;;
69081;SDS011;56184;51.986;5.760;2022-09-09T07:31:17;8.13;;;1.90;;
69081;SDS011;56184;51.986;5.760;2022-09-09T07:33:45;8.98;;;1.80;;
69081;SDS011;56184;51.986;5.760;2022-09-09T07:38:47;9.32;;;1.98;;
69081;SDS011;56184;51.986;5.760;2022-09-09T07:41:22;9.45;;;2.10;;
69081;SDS011;56184;51.986;5.760;2022-09-09T07:43:50;8.38;;;1.98;;
69081;SDS011;56184;51.986;5.760;2022-09-09T07:46:18;9.48;;;2.03;;
69081;SDS011;56184;51.986;5.760;2022-09-09T07:48:49;10.38;;;1.95;;
69081;SDS011;56184;51.986;5.760;2022-09-09T07:51:17;10.18;;;2.33;;
69081;SDS011;56184;51.986;5.760;2022-09-09T07:53:52;6.10;;;1.85;;
69081;SDS011;56184;51.986;5.760;2022-09-09T07:56:19;11.13;;;2.35;;
69081;SDS011;56184;51.986;5.760;2022-09-09T07:58:48;13.02;;;2.50;;
69081;SDS011;56184;51.986;5.760;2022-09-09T08:01:16;10.05;;;2.15;;
69081;SDS011;56184;51.986;5.760;2022-09-09T08:03:43;9.32;;;1.73;;
69081;SDS011;56184;51.986;5.760;2022-09-09T08:06:16;10.50;;;2.13;;
69081;SDS011;56184;51.986;5.760;2022-09-09T08:08:42;7.80;;;2.13;;
69081;SDS011;56184;51.986;5.760;2022-09-09T08:11:12;8.30;;;1.98;;
69081;SDS011;56184;51.986;5.760;2022-09-09T08:13:39;10.32;;;2.03;;
69081;SDS011;56184;51.986;5.760;2022-09-09T08:16:10;11.38;;;2.17;;
69081;SDS011;56184;51.986;5.760;2022-09-09T08:18:38;10.98;;;2.10;;
69081;SDS011;56184;51.986;5.760;2022-09-09T08:21:14;10.95;;;1.90;;
69081;SDS011;56184;51.986;5.760;2022-09-09T08:23:43;13.77;;;2.95;;
69081;SDS011;56184;51.986;5.760;2022-09-09T08:26:14;9.38;;;2.40;;
69081;SDS011;56184;51.986;5.760;2022-09-09T08:28:51;9.38;;;1.92;;
69081;SDS011;56184;51.986;5.760;2022-09-09T08:31:19;8.95;;;2.03;;
69081;SDS011;56184;51.986;5.760;2022-09-09T08:33:47;8.57;;;1.90;;
69081;SDS011;56184;51.986;5.760;2022-09-09T08:36:14;9.32;;;1.70;;
69081;SDS011;56184;51.986;5.760;2022-09-09T08:38:41;8.20;;;1.40;;
69081;SDS011;56184;51.986;5.760;2022-09-09T08:43:58;7.50;;;1.95;;
69081;SDS011;56184;51.986;5.760;2022-09-09T08:52:32;9.05;;;1.65;;
69081;SDS011;56184;51.986;5.760;2022-09-09T08:57:53;8.10;;;1.80;;
69081;SDS011;56184;51.986;5.760;2022-09-09T09:00:20;7.03;;;1.50;;
69081;SDS011;56184;51.986;5.760;2022-09-09T09:02:54;8.80;;;1.58;;
69081;SDS011;56184;51.986;5.760;2022-09-09T09:05:32;8.32;;;1.67;;
69081;SDS011;56184;51.986;5.760;2022-09-09T09:08:12;8.00;;;1.70;;
69081;SDS011;56184;51.986;5.760;2022-09-09T09:10:57;7.90;;;1.38;;
69081;SDS011;56184;51.986;5.760;2022-09-09T09:23:57;6.15;;;1.27;;
69081;SDS011;56184;51.986;5.760;2022-09-09T09:26:25;8.27;;;1.52;;
69081;SDS011;56184;51.986;5.760;2022-09-09T09:29:01;4.28;;;1.30;;
69081;SDS011;56184;51.986;5.760;2022-09-09T09:31:36;9.48;;;1.73;;
69081;SDS011;56184;51.986;5.760;2022-09-09T09:34:02;7.28;;;1.50;;
69081;SDS011;56184;51.986;5.760;2022-09-09T09:36:37;7.93;;;1.30;;
69081;SDS011;56184;51.986;5.760;2022-09-09T09:39:06;8.02;;;1.40;;
69081;SDS011;56184;51.986;5.760;2022-09-09T09:41:39;6.15;;;1.45;;
69081;SDS011;56184;51.986;5.760;2022-09-09T09:46:51;11.82;;;1.70;;
69081;SDS011;56184;51.986;5.760;2022-09-09T09:49:18;12.23;;;1.73;;
69081;SDS011;56184;51.986;5.760;2022-09-09T09:51:43;8.15;;;2.22;;
69081;SDS011;56184;51.986;5.760;2022-09-09T09:56:38;12.80;;;1.92;;
69081;SDS011;56184;51.986;5.760;2022-09-09T09:59:05;7.10;;;1.92;;
69081;SDS011;56184;51.986;5.760;2022-09-09T10:01:44;7.97;;;1.50;;
69081;SDS011;56184;51.986;5.760;2022-09-09T10:06:41;8.55;;;1.75;;
69081;SDS011;56184;51.986;5.760;2022-09-09T10:11:53;8.05;;;1.20;;
69081;SDS011;56184;51.986;5.760;2022-09-09T10:20:21;9.75;;;1.38;;
69081;SDS011;56184;51.986;5.760;2022-09-09T10:23:27;7.55;;;1.35;;
69081;SDS011;56184;51.986;5.760;2022-09-09T10:31:49;7.78;;;1.63;;
69081;SDS011;56184;51.986;5.760;2022-09-09T10:40:23;7.77;;;1.33;;
69081;SDS011;56184;51.986;5.760;2022-09-09T10:42:46;6.20;;;1.58;;
69081;SDS011;56184;51.986;5.760;2022-09-09T10:45:20;9.45;;;1.50;;
69081;SDS011;56184;51.986;5.760;2022-09-09T10:56:07;10.15;;;1.70;;
69081;SDS011;56184;51.986;5.760;2022-09-09T10:58:38;8.00;;;1.60;;
69081;SDS011;56184;51.986;5.760;2022-09-09T11:01:24;8.43;;;1.52;;
69081;SDS011;56184;51.986;5.760;2022-09-09T11:03:56;7.97;;;1.40;;
69081;SDS011;56184;51.986;5.760;2022-09-09T11:06:38;8.88;;;2.15;;
69081;SDS011;56184;51.986;5.760;2022-09-09T11:09:08;7.60;;;1.33;;
69081;SDS011;56184;51.986;5.760;2022-09-09T11:11:44;5.28;;;1.35;;
69081;SDS011;56184;51.986;5.760;2022-09-09T11:14:36;13.18;;;2.05;;
69081;SDS011;56184;51.986;5.760;2022-09-09T11:19:35;9.00;;;2.08;;
69081;SDS011;56184;51.986;5.760;2022-09-09T11:22:01;10.85;;;2.30;;
69081;SDS011;56184;51.986;5.760;2022-09-09T11:24:45;7.43;;;1.52;;
69081;SDS011;56184;51.986;5.760;2022-09-09T11:40:54;7.28;;;1.90;;
69081;SDS011;56184;51.986;5.760;2022-09-09T11:43:25;8.55;;;1.75;;
69081;SDS011;56184;51.986;5.760;2022-09-09T11:45:55;7.40;;;1.60;;
69081;SDS011;56184;51.986;5.760;2022-09-09T11:48:56;6.50;;;1.52;;
69081;SDS011;56184;51.986;5.760;2022-09-09T11:51:12;4.70;;;1.30;;
69081;SDS011;56184;51.986;5.760;2022-09-09T11:53:56;9.82;;;1.52;;
69081;SDS011;56184;51.986;5.760;2022-09-09T11:56:32;5.97;;;1.50;;
69081;SDS011;56184;51.986;5.760;2022-09-09T11:59:20;5.25;;;1.10;;
69081;SDS011;56184;51.986;5.760;2022-09-09T12:01:50;4.30;;;1.30;;
69081;SDS011;56184;51.986;5.760;2022-09-09T12:06:54;9.52;;;1.73;;
69081;SDS011;56184;51.986;5.760;2022-09-09T12:09:22;6.00;;;1.20;;
69081;SDS011;56184;51.986;5.760;2022-09-09T12:12:06;5.45;;;1.40;;
69081;SDS011;56184;51.986;5.760;2022-09-09T12:14:43;4.28;;;1.40;;
69081;SDS011;56184;51.986;5.760;2022-09-09T12:17:20;4.60;;;1.30;;
69081;SDS011;56184;51.986;5.760;2022-09-09T12:19:48;6.90;;;1.42;;
69081;SDS011;56184;51.986;5.760;2022-09-09T12:22:39;4.25;;;1.42;;
69081;SDS011;56184;51.986;5.760;2022-09-09T12:25:16;7.38;;;1.50;;
69081;SDS011;56184;51.986;5.760;2022-09-09T12:28:15;5.47;;;1.50;;
69081;SDS011;56184;51.986;5.760;2022-09-09T12:33:19;7.55;;;1.52;;
69081;SDS011;56184;51.986;5.760;2022-09-09T12:35:46;4.50;;;1.40;;
69081;SDS011;56184;51.986;5.760;2022-09-09T12:38:23;3.80;;;1.30;;
69081;SDS011;56184;51.986;5.760;2022-09-09T12:40:57;4.28;;;1.10;;
69081;SDS011;56184;51.986;5.760;2022-09-09T12:43:24;6.20;;;1.20;;
69081;SDS011;56184;51.986;5.760;2022-09-09T12:45:53;5.47;;;1.75;;
69081;SDS011;56184;51.986;5.760;2022-09-09T12:48:32;8.80;;;1.80;;
69081;SDS011;56184;51.986;5.760;2022-09-09T12:51:06;6.65;;;1.50;;
69081;SDS011;56184;51.986;5.760;2022-09-09T12:53:43;5.03;;;1.45;;
69081;SDS011;56184;51.986;5.760;2022-09-09T12:56:17;6.57;;;1.10;;
69081;SDS011;56184;51.986;5.760;2022-09-09T12:58:47;6.53;;;1.23;;
69081;SDS011;56184;51.986;5.760;2022-09-09T13:01:23;4.65;;;1.20;;
69081;SDS011;56184;51.986;5.760;2022-09-09T13:03:54;6.07;;;1.17;;
69081;SDS011;56184;51.986;5.760;2022-09-09T13:06:27;4.60;;;1.00;;
69081;SDS011;56184;51.986;5.760;2022-09-09T13:08:58;3.42;;;1.08;;
69081;SDS011;56184;51.986;5.760;2022-09-09T13:11:28;3.03;;;1.02;;
69081;SDS011;56184;51.986;5.760;2022-09-09T13:13:59;4.45;;;1.08;;
69081;SDS011;56184;51.986;5.760;2022-09-09T13:18:56;7.25;;;1.30;;
69081;SDS011;56184;51.986;5.760;2022-09-09T13:21:36;5.70;;;1.20;;
69081;SDS011;56184;51.986;5.760;2022-09-09T13:24:30;3.03;;;1.10;;
69081;SDS011;56184;51.986;5.760;2022-09-09T13:26:59;4.35;;;1.10;;
69081;SDS011;56184;51.986;5.760;2022-09-09T13:29:50;5.57;;;1.40;;
69081;SDS011;56184;51.986;5.760;2022-09-09T13:32:20;4.22;;;1.27;;
69081;SDS011;56184;51.986;5.760;2022-09-09T13:34:58;7.57;;;1.48;;
69081;SDS011;56184;51.986;5.760;2022-09-09T13:37:33;5.60;;;1.23;;
69081;SDS011;56184;51.986;5.760;2022-09-09T13:40:02;8.65;;;1.70;;
69081;SDS011;56184;51.986;5.760;2022-09-09T13:42:31;10.43;;;1.58;;
69081;SDS011;56184;51.986;5.760;2022-09-09T13:45:26;4.47;;;1.30;;
69081;SDS011;56184;51.986;5.760;2022-09-09T13:48:08;5.15;;;1.52;;
69081;SDS011;56184;51.986;5.760;2022-09-09T13:50:34;5.10;;;1.50;;
69081;SDS011;56184;51.986;5.760;2022-09-09T13:53:00;6.65;;;1.23;;
69081;SDS011;56184;51.986;5.760;2022-09-09T13:55:26;4.75;;;1.30;;
69081;SDS011;56184;51.986;5.760;2022-09-09T13:57:54;3.15;;;1.23;;
69081;SDS011;56184;51.986;5.760;2022-09-09T14:00:20;4.93;;;1.40;;
69081;SDS011;56184;51.986;5.760;2022-09-09T14:02:46;6.20;;;1.48;;
69081;SDS011;56184;51.986;5.760;2022-09-09T14:05:13;4.35;;;1.38;;
69081;SDS011;56184;51.986;5.760;2022-09-09T14:07:40;4.40;;;1.00;;
69081;SDS011;56184;51.986;5.760;2022-09-09T14:10:06;4.28;;;1.20;;
69081;SDS011;56184;51.986;5.760;2022-09-09T14:12:33;5.10;;;1.30;;
69081;SDS011;56184;51.986;5.760;2022-09-09T14:14:58;4.43;;;1.13;;
69081;SDS011;56184;51.986;5.760;2022-09-09T14:17:26;3.97;;;1.45;;
69081;SDS011;56184;51.986;5.760;2022-09-09T14:19:55;7.07;;;1.27;;
69081;SDS011;56184;51.986;5.760;2022-09-09T14:22:21;3.50;;;1.00;;
69081;SDS011;56184;51.986;5.760;2022-09-09T14:24:47;6.03;;;1.02;;
69081;SDS011;56184;51.986;5.760;2022-09-09T14:27:13;3.05;;;1.10;;
69081;SDS011;56184;51.986;5.760;2022-09-09T14:29:39;5.15;;;1.00;;
69081;SDS011;56184;51.986;5.760;2022-09-09T14:32:04;6.93;;;1.30;;
69081;SDS011;56184;51.986;5.760;2022-09-09T14:34:30;1.65;;;0.93;;
69081;SDS011;56184;51.986;5.760;2022-09-09T14:36:57;3.80;;;1.20;;
69081;SDS011;56184;51.986;5.760;2022-09-09T14:39:23;4.30;;;1.20;;
69081;SDS011;56184;51.986;5.760;2022-09-09T14:41:48;6.00;;;1.25;;
69081;SDS011;56184;51.986;5.760;2022-09-09T14:44:14;4.63;;;1.25;;
69081;SDS011;56184;51.986;5.760;2022-09-09T14:46:41;5.50;;;1.27;;
69081;SDS011;56184;51.986;5.760;2022-09-09T14:49:08;5.15;;;1.30;;
69081;SDS011;56184;51.986;5.760;2022-09-09T14:51:35;6.32;;;1.45;;
69081;SDS011;56184;51.986;5.760;2022-09-09T14:54:01;5.80;;;1.38;;
69081;SDS011;56184;51.986;5.760;2022-09-09T14:56:31;7.63;;;1.30;;
69081;SDS011;56184;51.986;5.760;2022-09-09T14:59:12;6.80;;;1.35;;
69081;SDS011;56184;51.986;5.760;2022-09-09T15:01:43;8.13;;;1.40;;
69081;SDS011;56184;51.986;5.760;2022-09-09T15:04:10;5.22;;;1.00;;
69081;SDS011;56184;51.986;5.760;2022-09-09T15:06:39;6.72;;;1.30;;
69081;SDS011;56184;51.986;5.760;2022-09-09T15:09:09;5.00;;;1.20;;
69081;SDS011;56184;51.986;5.760;2022-09-09T15:11:35;8.05;;;1.75;;
69081;SDS011;56184;51.986;5.760;2022-09-09T15:14:09;7.47;;;1.40;;
69081;SDS011;56184;51.986;5.760;2022-09-09T15:19:33;7.13;;;1.85;;
69081;SDS011;56184;51.986;5.760;2022-09-09T15:21:59;7.63;;;2.05;;
69081;SDS011;56184;51.986;5.760;2022-09-09T15:24:26;4.07;;;1.40;;
69081;SDS011;56184;51.986;5.760;2022-09-09T15:26:53;9.18;;;1.98;;
69081;SDS011;56184;51.986;5.760;2022-09-09T15:29:18;18.63;;;2.10;;
69081;SDS011;56184;51.986;5.760;2022-09-09T15:31:46;9.20;;;2.20;;
69081;SDS011;56184;51.986;5.760;2022-09-09T15:34:24;25.95;;;3.20;;
69081;SDS011;56184;51.986;5.760;2022-09-09T15:37:05;35.28;;;3.83;;
69081;SDS011;56184;51.986;5.760;2022-09-09T15:39:32;35.22;;;4.13;;
69081;SDS011;56184;51.986;5.760;2022-09-09T15:41:58;11.07;;;3.00;;
69081;SDS011;56184;51.986;5.760;2022-09-09T15:44:27;14.82;;;3.50;;
69081;SDS011;56184;51.986;5.760;2022-09-09T15:49:23;16.02;;;3.00;;
69081;SDS011;56184;51.986;5.760;2022-09-09T15:51:57;8.93;;;2.97;;
69081;SDS011;56184;51.986;5.760;2022-09-09T15:54:28;21.65;;;3.15;;
69081;SDS011;56184;51.986;5.760;2022-09-09T15:57:06;8.80;;;2.85;;
69081;SDS011;56184;51.986;5.760;2022-09-09T15:59:35;19.63;;;3.40;;
69081;SDS011;56184;51.986;5.760;2022-09-09T16:02:03;14.52;;;2.78;;
69081;SDS011;56184;51.986;5.760;2022-09-09T16:04:30;8.27;;;2.80;;
69081;SDS011;56184;51.986;5.760;2022-09-09T16:06:57;6.60;;;2.38;;
69081;SDS011;56184;51.986;5.760;2022-09-09T16:09:25;9.90;;;2.85;;
69081;SDS011;56184;51.986;5.760;2022-09-09T16:11:51;9.40;;;2.17;;
69081;SDS011;56184;51.986;5.760;2022-09-09T16:14:18;10.20;;;2.85;;
69081;SDS011;56184;51.986;5.760;2022-09-09T16:16:43;9.30;;;2.83;;
69081;SDS011;56184;51.986;5.760;2022-09-09T16:19:10;16.20;;;3.10;;
69081;SDS011;56184;51.986;5.760;2022-09-09T16:21:38;9.35;;;3.42;;
69081;SDS011;56184;51.986;5.760;2022-09-09T16:24:07;7.57;;;2.40;;
69081;SDS011;56184;51.986;5.760;2022-09-09T16:26:35;5.65;;;2.78;;
69081;SDS011;56184;51.986;5.760;2022-09-09T16:29:02;10.30;;;2.60;;
69081;SDS011;56184;51.986;5.760;2022-09-09T16:31:29;4.63;;;2.45;;
69081;SDS011;56184;51.986;5.760;2022-09-09T16:33:56;13.02;;;2.85;;
69081;SDS011;56184;51.986;5.760;2022-09-09T16:36:23;6.93;;;2.40;;
69081;SDS011;56184;51.986;5.760;2022-09-09T16:38:54;3.28;;;2.22;;
69081;SDS011;56184;51.986;5.760;2022-09-09T16:41:28;4.72;;;2.20;;
69081;SDS011;56184;51.986;5.760;2022-09-09T16:43:55;5.22;;;2.30;;
69081;SDS011;56184;51.986;5.760;2022-09-09T16:46:24;8.07;;;2.25;;
69081;SDS011;56184;51.986;5.760;2022-09-09T16:49:02;10.27;;;2.50;;
69081;SDS011;56184;51.986;5.760;2022-09-09T16:54:02;5.05;;;2.22;;
69081;SDS011;56184;51.986;5.760;2022-09-09T16:56:31;6.70;;;2.03;;
69081;SDS011;56184;51.986;5.760;2022-09-09T16:59:00;9.25;;;2.58;;
69081;SDS011;56184;51.986;5.760;2022-09-09T17:01:28;5.97;;;2.80;;
69081;SDS011;56184;51.986;5.760;2022-09-09T17:03:57;5.25;;;2.05;;
69081;SDS011;56184;51.986;5.760;2022-09-09T17:06:26;5.05;;;2.00;;
69081;SDS011;56184;51.986;5.760;2022-09-09T17:08:55;4.72;;;2.20;;
69081;SDS011;56184;51.986;5.760;2022-09-09T17:11:22;4.13;;;1.70;;
69081;SDS011;56184;51.986;5.760;2022-09-09T17:13:48;6.20;;;2.00;;
69081;SDS011;56184;51.986;5.760;2022-09-09T17:16:16;6.78;;;1.92;;
69081;SDS011;56184;51.986;5.760;2022-09-09T17:18:42;6.03;;;1.90;;
69081;SDS011;56184;51.986;5.760;2022-09-09T17:21:14;5.50;;;1.60;;
69081;SDS011;56184;51.986;5.760;2022-09-09T17:26:13;2.88;;;1.40;;
69081;SDS011;56184;51.986;5.760;2022-09-09T17:28:40;3.17;;;1.63;;
69081;SDS011;56184;51.986;5.760;2022-09-09T17:31:08;5.97;;;1.60;;
69081;SDS011;56184;51.986;5.760;2022-09-09T17:33:35;6.82;;;2.15;;
69081;SDS011;56184;51.986;5.760;2022-09-09T17:36:07;2.78;;;1.50;;
69081;SDS011;56184;51.986;5.760;2022-09-09T17:38:44;3.45;;;1.70;;
69081;SDS011;56184;51.986;5.760;2022-09-09T17:41:10;3.17;;;1.75;;